SWR26Y EKBI-EDXW
Flight info
| Callsign | SWR26Y |
|---|---|
| Flight time | 0h 57m |
| Altitude | 14000 |
| Route | ALS DCT AMRAK DCT OLDIP |
| Aircraft | A20N/M-SDE2E3FGHIRWXY/LB1 |
Departure
| Time | 2026-04-22 13:56 |
|---|---|
| Airport | Billund Airport (EKBI) |
Arrival
| Time | 2026-04-22 14:54 |
|---|---|
| Airport | Westerland Sylt Airport (EDXW) |
| Time | Latitude | Longitude | Altitude | Speed | Heading |
|---|---|---|---|---|---|
| 2026-04-22 13:41 | 55.74388 | 9.14788 | 227 ft | 0 kts | 178° |
| 2026-04-22 13:49 | 55.74397 | 9.14788 | 227 ft | 2 kts | 177° |
| 2026-04-22 13:49 | 55.74413 | 9.14786 | 227 ft | 2 kts | 178° |
| 2026-04-22 13:49 | 55.74429 | 9.14785 | 227 ft | 2 kts | 174° |
| 2026-04-22 13:49 | 55.74445 | 9.14780 | 228 ft | 2 kts | 150° |
| 2026-04-22 13:50 | 55.74453 | 9.14767 | 227 ft | 2 kts | 89° |
| 2026-04-22 13:50 | 55.74452 | 9.14756 | 230 ft | 0 kts | 85° |
| 2026-04-22 13:50 | 55.74453 | 9.14765 | 230 ft | 0 kts | 84° |
| 2026-04-22 13:51 | 55.74454 | 9.14784 | 227 ft | 5 kts | 84° |
| 2026-04-22 13:51 | 55.74457 | 9.14887 | 228 ft | 11 kts | 94° |
| 2026-04-22 13:51 | 55.74418 | 9.14982 | 228 ft | 9 kts | 179° |
| 2026-04-22 13:51 | 55.74329 | 9.14982 | 228 ft | 16 kts | 180° |
| 2026-04-22 13:52 | 55.74246 | 9.14984 | 228 ft | 19 kts | 172° |
| 2026-04-22 13:52 | 55.74204 | 9.15152 | 229 ft | 18 kts | 86° |
| 2026-04-22 13:52 | 55.74209 | 9.15505 | 231 ft | 25 kts | 88° |
| 2026-04-22 13:52 | 55.74213 | 9.15722 | 233 ft | 26 kts | 88° |
| 2026-04-22 13:53 | 55.74223 | 9.16012 | 236 ft | 17 kts | 86° |
| 2026-04-22 13:53 | 55.74232 | 9.16255 | 236 ft | 23 kts | 86° |
| 2026-04-22 13:53 | 55.74243 | 9.16564 | 238 ft | 27 kts | 86° |
| 2026-04-22 13:53 | 55.74253 | 9.16823 | 240 ft | 21 kts | 86° |
| 2026-04-22 13:54 | 55.74264 | 9.17087 | 242 ft | 24 kts | 86° |
| 2026-04-22 13:54 | 55.74277 | 9.17409 | 244 ft | 29 kts | 85° |
| 2026-04-22 13:54 | 55.74282 | 9.17689 | 246 ft | 21 kts | 91° |
| 2026-04-22 13:54 | 55.74292 | 9.17928 | 247 ft | 18 kts | 86° |
| 2026-04-22 13:55 | 55.74267 | 9.18102 | 249 ft | 14 kts | 137° |
| 2026-04-22 13:55 | 55.74167 | 9.18127 | 248 ft | 16 kts | 198° |
| 2026-04-22 13:55 | 55.74121 | 9.17716 | 244 ft | 72 kts | 268° |
| 2026-04-22 13:55 | 55.74094 | 9.16813 | 242 ft | 142 kts | 267° |
| 2026-04-22 13:56 | 55.74031 | 9.14699 | 530 ft | 201 kts | 268° |
| 2026-04-22 13:56 | 55.73953 | 9.11885 | 964 ft | 251 kts | 268° |
| 2026-04-22 13:56 | 55.73855 | 9.08671 | 1498 ft | 255 kts | 268° |
| 2026-04-22 13:56 | 55.73860 | 9.05711 | 2066 ft | 229 kts | 282° |
| 2026-04-22 13:57 | 55.74515 | 9.03261 | 2906 ft | 224 kts | 314° |
| 2026-04-22 13:57 | 55.75888 | 9.01749 | 3929 ft | 246 kts | 342° |
| 2026-04-22 13:57 | 55.77651 | 9.01338 | 5055 ft | 266 kts | 0° |
| 2026-04-22 13:57 | 55.79517 | 9.01302 | 6520 ft | 264 kts | 348° |
| 2026-04-22 13:58 | 55.81206 | 9.00022 | 7617 ft | 269 kts | 328° |
| 2026-04-22 13:58 | 55.82452 | 8.97658 | 7754 ft | 269 kts | 301° |
| 2026-04-22 13:58 | 55.82960 | 8.94417 | 7872 ft | 278 kts | 275° |
| 2026-04-22 13:58 | 55.82576 | 8.91021 | 7991 ft | 285 kts | 247° |
| 2026-04-22 13:59 | 55.81381 | 8.88265 | 8112 ft | 290 kts | 220° |
| 2026-04-22 13:59 | 55.79559 | 8.86646 | 8234 ft | 296 kts | 193° |
| 2026-04-22 13:59 | 55.77525 | 8.86581 | 8351 ft | 297 kts | 166° |
| 2026-04-22 13:59 | 55.75638 | 8.88077 | 8473 ft | 294 kts | 142° |
| 2026-04-22 14:00 | 55.74131 | 8.90454 | 8586 ft | 292 kts | 135° |
| 2026-04-22 14:00 | 55.72585 | 8.92815 | 8704 ft | 293 kts | 138° |
| 2026-04-22 14:00 | 55.70971 | 8.95076 | 8837 ft | 296 kts | 140° |
| 2026-04-22 14:00 | 55.69333 | 8.97275 | 8938 ft | 295 kts | 141° |
| 2026-04-22 14:01 | 55.67713 | 8.99417 | 8995 ft | 293 kts | 141° |
| 2026-04-22 14:01 | 55.66074 | 9.01575 | 8966 ft | 294 kts | 141° |
| 2026-04-22 14:01 | 55.64429 | 9.03741 | 8975 ft | 293 kts | 141° |
| 2026-04-22 14:01 | 55.62779 | 9.05917 | 8971 ft | 297 kts | 141° |
| 2026-04-22 14:02 | 55.61131 | 9.08094 | 8976 ft | 296 kts | 141° |
| 2026-04-22 14:02 | 55.59482 | 9.10268 | 8978 ft | 296 kts | 141° |
| 2026-04-22 14:02 | 55.57861 | 9.12406 | 8975 ft | 294 kts | 141° |
| 2026-04-22 14:02 | 55.56216 | 9.14571 | 8977 ft | 295 kts | 141° |
| 2026-04-22 14:03 | 55.54560 | 9.16751 | 8978 ft | 296 kts | 141° |
| 2026-04-22 14:03 | 55.52911 | 9.18918 | 8972 ft | 295 kts | 141° |
| 2026-04-22 14:03 | 55.51263 | 9.21086 | 8969 ft | 295 kts | 141° |
| 2026-04-22 14:03 | 55.49611 | 9.23257 | 8975 ft | 296 kts | 141° |
| 2026-04-22 14:04 | 55.47981 | 9.25393 | 8971 ft | 294 kts | 141° |
| 2026-04-22 14:04 | 55.46329 | 9.27555 | 8974 ft | 296 kts | 141° |
| 2026-04-22 14:04 | 55.44670 | 9.29726 | 8967 ft | 297 kts | 141° |
| 2026-04-22 14:04 | 55.43023 | 9.31880 | 8967 ft | 294 kts | 141° |
| 2026-04-22 14:05 | 55.41373 | 9.34035 | 8974 ft | 295 kts | 141° |
| 2026-04-22 14:05 | 55.39750 | 9.36153 | 8962 ft | 293 kts | 141° |
| 2026-04-22 14:05 | 55.36462 | 9.40434 | 8966 ft | 295 kts | 141° |
| 2026-04-22 14:06 | 55.34801 | 9.42593 | 8963 ft | 296 kts | 141° |
| 2026-04-22 14:06 | 55.33166 | 9.44717 | 8973 ft | 295 kts | 141° |
| 2026-04-22 14:06 | 55.31519 | 9.46855 | 8963 ft | 294 kts | 141° |
| 2026-04-22 14:06 | 55.29864 | 9.49000 | 8973 ft | 295 kts | 141° |
| 2026-04-22 14:07 | 55.28211 | 9.51141 | 8973 ft | 295 kts | 141° |
| 2026-04-22 14:07 | 55.26561 | 9.53276 | 8962 ft | 295 kts | 141° |
| 2026-04-22 14:07 | 55.24910 | 9.55410 | 8963 ft | 295 kts | 141° |
| 2026-04-22 14:07 | 55.23292 | 9.57499 | 8964 ft | 294 kts | 141° |
| 2026-04-22 14:08 | 55.21635 | 9.59636 | 8964 ft | 295 kts | 141° |
| 2026-04-22 14:08 | 55.19980 | 9.61769 | 8965 ft | 295 kts | 141° |
| 2026-04-22 14:08 | 55.18321 | 9.63903 | 8969 ft | 295 kts | 141° |
| 2026-04-22 14:08 | 55.16666 | 9.66032 | 8968 ft | 294 kts | 141° |
| 2026-04-22 14:09 | 55.15036 | 9.68127 | 8969 ft | 295 kts | 141° |
| 2026-04-22 14:09 | 55.13385 | 9.70246 | 8967 ft | 294 kts | 141° |
| 2026-04-22 14:09 | 55.11736 | 9.72360 | 8966 ft | 293 kts | 142° |
| 2026-04-22 14:09 | 55.10081 | 9.74480 | 8967 ft | 294 kts | 142° |
| 2026-04-22 14:10 | 55.08433 | 9.76589 | 8967 ft | 294 kts | 142° |
| 2026-04-22 14:10 | 55.06777 | 9.78706 | 8967 ft | 294 kts | 142° |
| 2026-04-22 14:10 | 55.05139 | 9.80797 | 8970 ft | 294 kts | 141° |
| 2026-04-22 14:10 | 55.03492 | 9.82920 | 8970 ft | 294 kts | 141° |
| 2026-04-22 14:11 | 55.01844 | 9.85042 | 8969 ft | 294 kts | 141° |
| 2026-04-22 14:11 | 55.00199 | 9.87148 | 8979 ft | 294 kts | 141° |
| 2026-04-22 14:11 | 54.98563 | 9.89230 | 8971 ft | 295 kts | 141° |
| 2026-04-22 14:11 | 54.96901 | 9.91335 | 8970 ft | 295 kts | 141° |
| 2026-04-22 14:12 | 54.95234 | 9.93443 | 8971 ft | 295 kts | 142° |
| 2026-04-22 14:12 | 54.93533 | 9.95361 | 8967 ft | 297 kts | 155° |
| 2026-04-22 14:12 | 54.91515 | 9.96096 | 8969 ft | 299 kts | 181° |
| 2026-04-22 14:12 | 54.89499 | 9.95293 | 8963 ft | 298 kts | 207° |
| 2026-04-22 14:13 | 54.87880 | 9.93108 | 8970 ft | 294 kts | 233° |
| 2026-04-22 14:13 | 54.86835 | 9.90128 | 8968 ft | 291 kts | 247° |
| 2026-04-22 14:13 | 54.86004 | 9.86942 | 8973 ft | 284 kts | 249° |
| 2026-04-22 14:13 | 54.85199 | 9.83909 | 8967 ft | 268 kts | 247° |
| 2026-04-22 14:14 | 54.84395 | 9.81139 | 8967 ft | 252 kts | 245° |
| 2026-04-22 14:14 | 54.83568 | 9.78484 | 8970 ft | 253 kts | 244° |
| 2026-04-22 14:14 | 54.82705 | 9.75828 | 8969 ft | 251 kts | 243° |
| 2026-04-22 14:14 | 54.82037 | 9.73075 | 8975 ft | 245 kts | 264° |
| 2026-04-22 14:15 | 54.82133 | 9.70198 | 8895 ft | 237 kts | 291° |
| 2026-04-22 14:15 | 54.82953 | 9.67796 | 8611 ft | 230 kts | 318° |
| 2026-04-22 14:15 | 54.84280 | 9.66333 | 8255 ft | 227 kts | 343° |
| 2026-04-22 14:15 | 54.85807 | 9.66038 | 7963 ft | 224 kts | 7° |
| 2026-04-22 14:16 | 54.87274 | 9.66908 | 7634 ft | 226 kts | 31° |
| 2026-04-22 14:16 | 54.88389 | 9.68829 | 7340 ft | 229 kts | 56° |
| 2026-04-22 14:16 | 54.89102 | 9.71312 | 7063 ft | 229 kts | 62° |
| 2026-04-22 14:16 | 54.89794 | 9.73817 | 6760 ft | 229 kts | 61° |
| 2026-04-22 14:17 | 54.90487 | 9.76308 | 6488 ft | 228 kts | 61° |
| 2026-04-22 14:17 | 54.91181 | 9.78792 | 6222 ft | 227 kts | 61° |
| 2026-04-22 14:17 | 54.91842 | 9.81258 | 5925 ft | 229 kts | 68° |
| 2026-04-22 14:17 | 54.92034 | 9.84012 | 5654 ft | 233 kts | 93° |
| 2026-04-22 14:18 | 54.91484 | 9.86686 | 5369 ft | 238 kts | 122° |
| 2026-04-22 14:18 | 54.90267 | 9.88628 | 5120 ft | 239 kts | 152° |
| 2026-04-22 14:18 | 54.88669 | 9.89344 | 5029 ft | 246 kts | 180° |
| 2026-04-22 14:18 | 54.87041 | 9.88686 | 4974 ft | 237 kts | 211° |
| 2026-04-22 14:19 | 54.85800 | 9.86824 | 4967 ft | 234 kts | 238° |
| 2026-04-22 14:19 | 54.85072 | 9.84363 | 4970 ft | 231 kts | 248° |
| 2026-04-22 14:19 | 54.84379 | 9.81828 | 4970 ft | 232 kts | 248° |
| 2026-04-22 14:19 | 54.83676 | 9.79308 | 4964 ft | 233 kts | 248° |
| 2026-04-22 14:20 | 54.82252 | 9.74237 | 4963 ft | 231 kts | 251° |
| 2026-04-22 14:20 | 54.82038 | 9.71537 | 4969 ft | 226 kts | 282° |
| 2026-04-22 14:20 | 54.82601 | 9.69071 | 4965 ft | 218 kts | 308° |
| 2026-04-22 14:21 | 54.85082 | 9.66437 | 4970 ft | 216 kts | 353° |
| 2026-04-22 14:21 | 54.86567 | 9.66633 | 4974 ft | 216 kts | 16° |
| 2026-04-22 14:22 | 54.88780 | 9.70044 | 4973 ft | 225 kts | 61° |
| 2026-04-22 14:22 | 54.89443 | 9.72476 | 4968 ft | 225 kts | 61° |
| 2026-04-22 14:22 | 54.90803 | 9.77394 | 4968 ft | 225 kts | 61° |
| 2026-04-22 14:23 | 54.91489 | 9.79857 | 4969 ft | 225 kts | 61° |
| 2026-04-22 14:23 | 54.92017 | 9.82394 | 4969 ft | 228 kts | 78° |
| 2026-04-22 14:23 | 54.91905 | 9.85163 | 4977 ft | 234 kts | 105° |
| 2026-04-22 14:23 | 54.91060 | 9.87605 | 4965 ft | 240 kts | 134° |
| 2026-04-22 14:24 | 54.89634 | 9.89099 | 4966 ft | 242 kts | 163° |
| 2026-04-22 14:24 | 54.87981 | 9.89262 | 4968 ft | 242 kts | 193° |
| 2026-04-22 14:24 | 54.86474 | 9.88074 | 4968 ft | 238 kts | 222° |
| 2026-04-22 14:24 | 54.85467 | 9.85857 | 4972 ft | 231 kts | 248° |
| 2026-04-22 14:25 | 54.84784 | 9.83324 | 4967 ft | 232 kts | 248° |
| 2026-04-22 14:25 | 54.84095 | 9.80822 | 4950 ft | 232 kts | 248° |
| 2026-04-22 14:25 | 54.83387 | 9.78293 | 4964 ft | 233 kts | 247° |
| 2026-04-22 14:25 | 54.82672 | 9.75760 | 4966 ft | 234 kts | 248° |
| 2026-04-22 14:26 | 54.82165 | 9.73134 | 4963 ft | 227 kts | 269° |
| 2026-04-22 14:26 | 54.82413 | 9.70488 | 4970 ft | 223 kts | 297° |
| 2026-04-22 14:26 | 54.83350 | 9.68421 | 4965 ft | 217 kts | 325° |
| 2026-04-22 14:26 | 54.84698 | 9.67391 | 4969 ft | 215 kts | 351° |
| 2026-04-22 14:27 | 54.86177 | 9.67563 | 4973 ft | 216 kts | 17° |
| 2026-04-22 14:27 | 54.87456 | 9.68929 | 4967 ft | 219 kts | 44° |
| 2026-04-22 14:27 | 54.88272 | 9.71199 | 4969 ft | 225 kts | 62° |
| 2026-04-22 14:27 | 54.88942 | 9.73643 | 4964 ft | 225 kts | 62° |
| 2026-04-22 14:28 | 54.89618 | 9.76105 | 4968 ft | 225 kts | 62° |
| 2026-04-22 14:28 | 54.90297 | 9.78560 | 4968 ft | 225 kts | 61° |
| 2026-04-22 14:28 | 54.90964 | 9.81046 | 4970 ft | 227 kts | 68° |
| 2026-04-22 14:28 | 54.91117 | 9.83753 | 4974 ft | 233 kts | 97° |
| 2026-04-22 14:29 | 54.90446 | 9.86330 | 4970 ft | 239 kts | 129° |
| 2026-04-22 14:29 | 54.89084 | 9.87955 | 4972 ft | 242 kts | 162° |
| 2026-04-22 14:29 | 54.87415 | 9.88130 | 4962 ft | 242 kts | 195° |
| 2026-04-22 14:29 | 54.85968 | 9.86820 | 4962 ft | 236 kts | 227° |
| 2026-04-22 14:30 | 54.85084 | 9.84486 | 4972 ft | 231 kts | 248° |
| 2026-04-22 14:30 | 54.84398 | 9.81950 | 4967 ft | 232 kts | 248° |
| 2026-04-22 14:30 | 54.83701 | 9.79418 | 4959 ft | 232 kts | 248° |
| 2026-04-22 14:30 | 54.82999 | 9.76900 | 4970 ft | 233 kts | 248° |
| 2026-04-22 14:31 | 54.82325 | 9.74386 | 4955 ft | 230 kts | 256° |
| 2026-04-22 14:31 | 54.82210 | 9.71676 | 4964 ft | 224 kts | 285° |
| 2026-04-22 14:31 | 54.82866 | 9.69269 | 4961 ft | 220 kts | 313° |
| 2026-04-22 14:31 | 54.84061 | 9.67766 | 4959 ft | 214 kts | 340° |
| 2026-04-22 14:32 | 54.85535 | 9.67405 | 4966 ft | 217 kts | 6° |
| 2026-04-22 14:32 | 54.86944 | 9.68298 | 4965 ft | 217 kts | 33° |
| 2026-04-22 14:32 | 54.87947 | 9.70262 | 4973 ft | 222 kts | 59° |
| 2026-04-22 14:32 | 54.88624 | 9.72720 | 4970 ft | 227 kts | 62° |
| 2026-04-22 14:33 | 54.89298 | 9.75188 | 4968 ft | 225 kts | 62° |
| 2026-04-22 14:33 | 54.89971 | 9.77617 | 4970 ft | 225 kts | 61° |
| 2026-04-22 14:33 | 54.90658 | 9.80075 | 4969 ft | 227 kts | 61° |
| 2026-04-22 14:33 | 54.91093 | 9.82706 | 4967 ft | 230 kts | 85° |
| 2026-04-22 14:34 | 54.90732 | 9.85421 | 4976 ft | 237 kts | 116° |
| 2026-04-22 14:34 | 54.89584 | 9.87484 | 4963 ft | 241 kts | 150° |
| 2026-04-22 14:34 | 54.87993 | 9.88218 | 4969 ft | 243 kts | 182° |
| 2026-04-22 14:34 | 54.86397 | 9.87426 | 4972 ft | 239 kts | 216° |
| 2026-04-22 14:35 | 54.85288 | 9.85378 | 4970 ft | 232 kts | 243° |
| 2026-04-22 14:35 | 54.84631 | 9.82833 | 4964 ft | 230 kts | 254° |
| 2026-04-22 14:35 | 54.84142 | 9.80174 | 4949 ft | 230 kts | 257° |
| 2026-04-22 14:35 | 54.83688 | 9.77548 | 4960 ft | 230 kts | 256° |
| 2026-04-22 14:36 | 54.83207 | 9.74894 | 4951 ft | 230 kts | 256° |
| 2026-04-22 14:36 | 54.82699 | 9.72253 | 4806 ft | 228 kts | 255° |
| 2026-04-22 14:36 | 54.82176 | 9.69643 | 4505 ft | 229 kts | 254° |
| 2026-04-22 14:36 | 54.81655 | 9.67087 | 4296 ft | 227 kts | 253° |
| 2026-04-22 14:37 | 54.81131 | 9.64515 | 4066 ft | 225 kts | 254° |
| 2026-04-22 14:37 | 54.80616 | 9.61955 | 3818 ft | 225 kts | 253° |
| 2026-04-22 14:37 | 54.80103 | 9.59406 | 3549 ft | 223 kts | 253° |
| 2026-04-22 14:37 | 54.79595 | 9.56882 | 3387 ft | 219 kts | 254° |
| 2026-04-22 14:38 | 54.79261 | 9.55239 | 3217 ft | 218 kts | 253° |
| 2026-04-22 14:38 | 54.78593 | 9.51935 | 2984 ft | 214 kts | 253° |
| 2026-04-22 14:38 | 54.78267 | 9.50333 | 2948 ft | 214 kts | 255° |
| 2026-04-22 14:38 | 54.77765 | 9.47880 | 2935 ft | 216 kts | 253° |
| 2026-04-22 14:39 | 54.77249 | 9.45379 | 2946 ft | 225 kts | 253° |
| 2026-04-22 14:39 | 54.76720 | 9.42838 | 2945 ft | 222 kts | 253° |
| 2026-04-22 14:39 | 54.76211 | 9.40341 | 2928 ft | 225 kts | 253° |
| 2026-04-22 14:40 | 54.75180 | 9.35216 | 2941 ft | 221 kts | 253° |
| 2026-04-22 14:40 | 54.74659 | 9.32681 | 2961 ft | 224 kts | 253° |
| 2026-04-22 14:40 | 54.74151 | 9.30207 | 2955 ft | 223 kts | 253° |
| 2026-04-22 14:40 | 54.73622 | 9.27637 | 2961 ft | 221 kts | 253° |
| 2026-04-22 14:41 | 54.73105 | 9.25123 | 2955 ft | 222 kts | 253° |
| 2026-04-22 14:41 | 54.72593 | 9.22626 | 2944 ft | 221 kts | 252° |
| 2026-04-22 14:41 | 54.72067 | 9.20085 | 2952 ft | 227 kts | 254° |
| 2026-04-22 14:41 | 54.71543 | 9.17545 | 2946 ft | 220 kts | 254° |
| 2026-04-22 14:42 | 54.71016 | 9.14986 | 2958 ft | 230 kts | 252° |
| 2026-04-22 14:42 | 54.70480 | 9.12427 | 2946 ft | 225 kts | 253° |
| 2026-04-22 14:42 | 54.69955 | 9.09889 | 2969 ft | 219 kts | 254° |
| 2026-04-22 14:42 | 54.69467 | 9.07547 | 2969 ft | 205 kts | 253° |
| 2026-04-22 14:43 | 54.68981 | 9.05192 | 2968 ft | 205 kts | 255° |
| 2026-04-22 14:43 | 54.68502 | 9.02871 | 2966 ft | 203 kts | 255° |
| 2026-04-22 14:43 | 54.68025 | 9.00525 | 2971 ft | 215 kts | 255° |
| 2026-04-22 14:43 | 54.67525 | 8.98068 | 2959 ft | 219 kts | 253° |
| 2026-04-22 14:44 | 54.67002 | 8.95566 | 2965 ft | 220 kts | 255° |
| 2026-04-22 14:44 | 54.66492 | 8.93069 | 2966 ft | 222 kts | 255° |
| 2026-04-22 14:44 | 54.65971 | 8.90556 | 2962 ft | 222 kts | 253° |
| 2026-04-22 14:44 | 54.65450 | 8.88063 | 2958 ft | 218 kts | 254° |
| 2026-04-22 14:45 | 54.64925 | 8.85596 | 2980 ft | 220 kts | 253° |
| 2026-04-22 14:45 | 54.64412 | 8.83138 | 2973 ft | 218 kts | 254° |
| 2026-04-22 14:45 | 54.63864 | 8.80551 | 2983 ft | 243 kts | 254° |
| 2026-04-22 14:45 | 54.63279 | 8.77800 | 2980 ft | 245 kts | 253° |
| 2026-04-22 14:46 | 54.62683 | 8.75032 | 2978 ft | 247 kts | 253° |
| 2026-04-22 14:46 | 54.62330 | 8.72197 | 2979 ft | 238 kts | 275° |
| 2026-04-22 14:46 | 54.62792 | 8.69486 | 2981 ft | 238 kts | 303° |
| 2026-04-22 14:46 | 54.63949 | 8.67517 | 2983 ft | 231 kts | 325° |
| 2026-04-22 14:47 | 54.65248 | 8.65974 | 2979 ft | 232 kts | 326° |
| 2026-04-22 14:47 | 54.66603 | 8.64371 | 2986 ft | 235 kts | 325° |
| 2026-04-22 14:47 | 54.67920 | 8.62791 | 2987 ft | 226 kts | 325° |
| 2026-04-22 14:47 | 54.69234 | 8.61202 | 2986 ft | 232 kts | 325° |
| 2026-04-22 14:48 | 54.70573 | 8.59655 | 2995 ft | 235 kts | 326° |
| 2026-04-22 14:48 | 54.71942 | 8.58075 | 2989 ft | 229 kts | 325° |
| 2026-04-22 14:48 | 54.73246 | 8.56502 | 2990 ft | 237 kts | 324° |
| 2026-04-22 14:48 | 54.74575 | 8.54853 | 2989 ft | 235 kts | 324° |
| 2026-04-22 14:49 | 54.75896 | 8.53214 | 2989 ft | 236 kts | 324° |
| 2026-04-22 14:49 | 54.77211 | 8.51579 | 2983 ft | 228 kts | 324° |
| 2026-04-22 14:49 | 54.78523 | 8.49949 | 2937 ft | 230 kts | 324° |
| 2026-04-22 14:49 | 54.79791 | 8.48373 | 2644 ft | 219 kts | 324° |
| 2026-04-22 14:50 | 54.81005 | 8.46865 | 2361 ft | 209 kts | 323° |
| 2026-04-22 14:50 | 54.82156 | 8.45434 | 2080 ft | 202 kts | 323° |
| 2026-04-22 14:50 | 54.83281 | 8.44036 | 1801 ft | 195 kts | 323° |
| 2026-04-22 14:50 | 54.84370 | 8.42683 | 1528 ft | 189 kts | 323° |
| 2026-04-22 14:51 | 54.85357 | 8.41457 | 1340 ft | 175 kts | 323° |
| 2026-04-22 14:52 | 54.86271 | 8.40321 | 1099 ft | 158 kts | 323° |
| 2026-04-22 14:52 | 54.87107 | 8.39284 | 882 ft | 135 kts | 323° |
| 2026-04-22 14:52 | 54.87815 | 8.38404 | 704 ft | 120 kts | 323° |
| 2026-04-22 14:52 | 54.88503 | 8.37550 | 534 ft | 120 kts | 324° |
| 2026-04-22 14:53 | 54.89141 | 8.36754 | 368 ft | 105 kts | 324° |
| 2026-04-22 14:53 | 54.89706 | 8.36035 | 234 ft | 101 kts | 326° |
| 2026-04-22 14:53 | 54.90277 | 8.35349 | 97 ft | 100 kts | 324° |
| 2026-04-22 14:53 | 54.90824 | 8.34673 | 50 ft | 87 kts | 323° |
| 2026-04-22 14:54 | 54.91156 | 8.34263 | 45 ft | 42 kts | 323° |
| 2026-04-22 14:54 | 54.91382 | 8.33987 | 40 ft | 37 kts | 326° |
| 2026-04-22 14:54 | 54.91576 | 8.33757 | 44 ft | 30 kts | 312° |
| 2026-04-22 14:54 | 54.91733 | 8.33556 | 45 ft | 26 kts | 325° |
| 2026-04-22 14:55 | 54.91877 | 8.33369 | 42 ft | 22 kts | 306° |
| 2026-04-22 14:55 | 54.91823 | 8.33205 | 42 ft | 17 kts | 189° |
| 2026-04-22 14:55 | 54.91696 | 8.33174 | 39 ft | 21 kts | 181° |
| 2026-04-22 14:55 | 54.91526 | 8.33177 | 35 ft | 28 kts | 170° |
| 2026-04-22 14:56 | 54.91427 | 8.33215 | 32 ft | 11 kts | 160° |
| 2026-04-22 14:56 | 54.91386 | 8.33219 | 31 ft | 5 kts | 264° |
| 2026-04-22 14:56 | 54.91386 | 8.33178 | 30 ft | 2 kts | 257° |